Search for airport 
image banner adimage banner adimage banner ad
image banner ad

KFFL - Fairfield Muni

Located in Fairfield, United States

ICAO - FFL, IATA - FFL

Data provided by Airmate  

General information

Coordinates: N41°3'21" W91°58'51"
Elevation is 801 feet MSL.
Magnetic variation is 00° East
View others Airports in Iowa

Operational data

Special qualification required
Current time UTC:
Current local time:
Weather
METAR: KFFL 150955Z AUTO 34004KT 10SM CLR 15/15 A3007 RMK A01
View NOTAMs / SUP AIP / TFR affecting this airport [VIEW]
Communications frequencies: [VIEW]

Runways:

RWY identifierQFULength (ft)Width (ft)SurfaceLDA (ft)
0890°2505140GRASS
26270°2505140GRASS
18180°5503100CONC
36360°5503100CONC

Airport contact information

Address: Fairfield United States

Other aviation service providers

Flight schools

Fairfield Flying Service

Fairfield Flying Service
ffslyons@yahoo.com+1(641)472-3166

Satellite view of KFFL